sensor_id;sensor_type;location;lat;lon;timestamp;pressure;altitude;pressure_sealevel;temperature;humidity
46846;BME280;33947;46.804;134.252;2024-02-21T00:02:31;102670.53;;;-20.61;49.79
46846;BME280;33947;46.804;134.252;2024-02-21T00:05:49;102668.25;;;-20.12;49.78
46846;BME280;33947;46.804;134.252;2024-02-21T00:08:56;102659.19;;;-19.55;50.28
46846;BME280;33947;46.804;134.252;2024-02-21T00:12:06;102646.31;;;-19.57;48.34
46846;BME280;33947;46.804;134.252;2024-02-21T00:15:13;102658.34;;;-18.99;49.51
46846;BME280;33947;46.804;134.252;2024-02-21T00:18:21;102657.19;;;-19.30;47.56
46846;BME280;33947;46.804;134.252;2024-02-21T00:21:33;102615.50;;;-18.33;50.96
46846;BME280;33947;46.804;134.252;2024-02-21T00:24:40;102644.16;;;-17.23;50.98
46846;BME280;33947;46.804;134.252;2024-02-21T00:27:49;102636.28;;;-15.47;50.28
46846;BME280;33947;46.804;134.252;2024-02-21T00:30:55;102638.50;;;-14.77;47.75
46846;BME280;33947;46.804;134.252;2024-02-21T00:34:02;102627.25;;;-13.78;48.17
46846;BME280;33947;46.804;134.252;2024-02-21T00:37:09;102624.88;;;-12.08;46.54
46846;BME280;33947;46.804;134.252;2024-02-21T00:40:16;102627.34;;;-11.15;43.70
46846;BME280;33947;46.804;134.252;2024-02-21T00:43:26;102632.03;;;-10.33;42.54
46846;BME280;33947;46.804;134.252;2024-02-21T00:46:34;102627.44;;;-10.56;39.74
46846;BME280;33947;46.804;134.252;2024-02-21T00:49:43;102618.88;;;-9.24;40.22
46846;BME280;33947;46.804;134.252;2024-02-21T00:52:50;102622.19;;;-8.41;37.55
46846;BME280;33947;46.804;134.252;2024-02-21T00:55:58;102598.66;;;-9.19;35.88
46846;BME280;33947;46.804;134.252;2024-02-21T00:59:07;102596.44;;;-9.04;38.96
46846;BME280;33947;46.804;134.252;2024-02-21T01:02:14;102596.34;;;-6.92;36.97
46846;BME280;33947;46.804;134.252;2024-02-21T01:05:20;102600.13;;;-8.15;36.23
46846;BME280;33947;46.804;134.252;2024-02-21T01:08:28;102598.63;;;-6.97;36.08
46846;BME280;33947;46.804;134.252;2024-02-21T01:11:35;102587.88;;;-7.83;31.26
46846;BME280;33947;46.804;134.252;2024-02-21T01:14:44;102590.59;;;-6.52;35.50
46846;BME280;33947;46.804;134.252;2024-02-21T01:17:52;102534.97;;;-6.08;32.85
46846;BME280;33947;46.804;134.252;2024-02-21T01:20:59;102578.09;;;-5.58;34.00
46846;BME280;33947;46.804;134.252;2024-02-21T01:24:07;102599.66;;;-6.21;32.58
46846;BME280;33947;46.804;134.252;2024-02-21T01:27:14;102589.50;;;-4.90;34.22
46846;BME280;33947;46.804;134.252;2024-02-21T01:30:23;102492.22;;;-6.27;32.00
46846;BME280;33947;46.804;134.252;2024-02-21T01:33:30;102573.06;;;-7.40;33.24
46846;BME280;33947;46.804;134.252;2024-02-21T01:36:39;102572.94;;;-6.70;31.24
46846;BME280;33947;46.804;134.252;2024-02-21T01:39:47;102562.41;;;-7.20;31.33
46846;BME280;33947;46.804;134.252;2024-02-21T01:42:55;102557.75;;;-9.04;31.53
46846;BME280;33947;46.804;134.252;2024-02-21T01:46:04;102568.69;;;-6.81;34.24
46846;BME280;33947;46.804;134.252;2024-02-21T01:49:12;102557.75;;;-6.65;32.89
46846;BME280;33947;46.804;134.252;2024-02-21T01:52:20;102561.47;;;-5.48;32.82
46846;BME280;33947;46.804;134.252;2024-02-21T01:55:28;102566.78;;;-5.33;31.57
46846;BME280;33947;46.804;134.252;2024-02-21T01:58:37;102538.06;;;-5.36;31.24
46846;BME280;33947;46.804;134.252;2024-02-21T02:01:47;102552.34;;;-4.75;30.93
46846;BME280;33947;46.804;134.252;2024-02-21T02:04:54;102501.22;;;-5.03;30.91
46846;BME280;33947;46.804;134.252;2024-02-21T02:08:03;102537.75;;;-5.80;27.88
46846;BME280;33947;46.804;134.252;2024-02-21T02:11:12;102539.09;;;-7.56;28.69
46846;BME280;33947;46.804;134.252;2024-02-21T02:14:20;102539.78;;;-7.47;28.39
46846;BME280;33947;46.804;134.252;2024-02-21T02:17:28;102540.16;;;-7.06;30.79
46846;BME280;33947;46.804;134.252;2024-02-21T02:20:35;102535.22;;;-6.66;32.40
46846;BME280;33947;46.804;134.252;2024-02-21T02:23:45;102529.25;;;-5.52;30.91
46846;BME280;33947;46.804;134.252;2024-02-21T02:26:53;102533.19;;;-7.65;29.06
46846;BME280;33947;46.804;134.252;2024-02-21T02:30:00;102518.50;;;-6.95;31.59
46846;BME280;33947;46.804;134.252;2024-02-21T02:33:07;102528.69;;;-6.24;30.17
46846;BME280;33947;46.804;134.252;2024-02-21T02:36:15;102504.66;;;-8.35;28.70
46846;BME280;33947;46.804;134.252;2024-02-21T02:39:26;102520.53;;;-7.50;31.84
46846;BME280;33947;46.804;134.252;2024-02-21T02:42:33;102534.00;;;-7.66;33.39
46846;BME280;33947;46.804;134.252;2024-02-21T02:45:43;102524.94;;;-6.53;32.59
46846;BME280;33947;46.804;134.252;2024-02-21T02:48:50;102513.88;;;-8.05;31.83
46846;BME280;33947;46.804;134.252;2024-02-21T02:51:57;102511.31;;;-8.27;32.44
46846;BME280;33947;46.804;134.252;2024-02-21T02:55:08;102504.53;;;-7.80;32.64
46846;BME280;33947;46.804;134.252;2024-02-21T02:58:16;102494.28;;;-7.91;32.87
46846;BME280;33947;46.804;134.252;2024-02-21T03:01:27;102493.81;;;-8.53;33.61
46846;BME280;33947;46.804;134.252;2024-02-21T03:04:34;102477.59;;;-8.63;33.32
46846;BME280;33947;46.804;134.252;2024-02-21T03:07:44;102478.03;;;-9.01;34.39
46846;BME280;33947;46.804;134.252;2024-02-21T03:10:53;102467.19;;;-9.73;34.19
46846;BME280;33947;46.804;134.252;2024-02-21T03:14:00;102435.25;;;-9.32;33.25
46846;BME280;33947;46.804;134.252;2024-02-21T03:17:07;102425.78;;;-8.99;33.56
46846;BME280;33947;46.804;134.252;2024-02-21T03:20:14;102405.88;;;-9.11;32.34
46846;BME280;33947;46.804;134.252;2024-02-21T03:23:22;102442.00;;;-9.11;33.05
46846;BME280;33947;46.804;134.252;2024-02-21T03:26:31;102445.81;;;-9.39;33.13
46846;BME280;33947;46.804;134.252;2024-02-21T03:29:39;102437.47;;;-10.21;34.76
46846;BME280;33947;46.804;134.252;2024-02-21T03:32:47;102428.50;;;-9.52;35.17
46846;BME280;33947;46.804;134.252;2024-02-21T03:35:54;102418.91;;;-9.43;33.51
46846;BME280;33947;46.804;134.252;2024-02-21T03:39:02;102407.59;;;-9.55;33.21
46846;BME280;33947;46.804;134.252;2024-02-21T03:42:10;102400.78;;;-10.08;32.92
46846;BME280;33947;46.804;134.252;2024-02-21T03:45:17;102397.94;;;-10.32;35.63
46846;BME280;33947;46.804;134.252;2024-02-21T03:48:24;102380.97;;;-10.50;35.97
46846;BME280;33947;46.804;134.252;2024-02-21T03:51:31;102372.84;;;-10.55;34.13
46846;BME280;33947;46.804;134.252;2024-02-21T03:54:38;102394.09;;;-10.57;35.60
46846;BME280;33947;46.804;134.252;2024-02-21T03:57:47;102381.44;;;-10.85;35.29
46846;BME280;33947;46.804;134.252;2024-02-21T04:00:54;102378.34;;;-10.92;35.23
46846;BME280;33947;46.804;134.252;2024-02-21T04:04:02;102361.63;;;-10.97;35.98
46846;BME280;33947;46.804;134.252;2024-02-21T04:07:10;102360.34;;;-10.71;35.59
46846;BME280;33947;46.804;134.252;2024-02-21T04:10:17;102372.34;;;-11.22;36.13
46846;BME280;33947;46.804;134.252;2024-02-21T04:13:26;102352.66;;;-11.71;36.19
46846;BME280;33947;46.804;134.252;2024-02-21T04:16:35;102352.28;;;-11.36;36.04
46846;BME280;33947;46.804;134.252;2024-02-21T04:19:43;102360.19;;;-11.54;35.14
46846;BME280;33947;46.804;134.252;2024-02-21T04:22:50;102362.78;;;-11.43;37.58
46846;BME280;33947;46.804;134.252;2024-02-21T04:25:57;102356.81;;;-11.93;37.38
46846;BME280;33947;46.804;134.252;2024-02-21T04:29:05;102348.75;;;-12.06;35.66
46846;BME280;33947;46.804;134.252;2024-02-21T04:32:13;102342.28;;;-11.63;37.33
46846;BME280;33947;46.804;134.252;2024-02-21T04:35:20;102350.53;;;-11.86;37.63
46846;BME280;33947;46.804;134.252;2024-02-21T04:38:28;102311.09;;;-10.96;36.33
46846;BME280;33947;46.804;134.252;2024-02-21T04:41:35;102332.44;;;-10.87;36.88
46846;BME280;33947;46.804;134.252;2024-02-21T04:44:43;102334.78;;;-10.59;34.88
46846;BME280;33947;46.804;134.252;2024-02-21T04:47:51;102327.66;;;-11.64;37.36
46846;BME280;33947;46.804;134.252;2024-02-21T04:50:58;102297.78;;;-11.53;36.39
46846;BME280;33947;46.804;134.252;2024-02-21T04:54:05;102323.38;;;-11.23;35.98
46846;BME280;33947;46.804;134.252;2024-02-21T04:57:13;102311.34;;;-11.64;37.80
46846;BME280;33947;46.804;134.252;2024-02-21T05:00:23;102318.19;;;-11.84;38.69
46846;BME280;33947;46.804;134.252;2024-02-21T05:03:30;102302.69;;;-11.25;38.20
46846;BME280;33947;46.804;134.252;2024-02-21T05:06:38;102304.47;;;-11.44;38.01
46846;BME280;33947;46.804;134.252;2024-02-21T05:09:45;102307.75;;;-11.66;38.24
46846;BME280;33947;46.804;134.252;2024-02-21T05:12:52;102298.47;;;-11.74;37.61
46846;BME280;33947;46.804;134.252;2024-02-21T05:16:01;102305.03;;;-11.07;38.33
46846;BME280;33947;46.804;134.252;2024-02-21T05:19:09;102300.75;;;-12.26;38.65
46846;BME280;33947;46.804;134.252;2024-02-21T05:22:16;102294.75;;;-12.65;39.70
46846;BME280;33947;46.804;134.252;2024-02-21T05:25:23;102286.56;;;-12.42;40.03
46846;BME280;33947;46.804;134.252;2024-02-21T05:28:30;102280.41;;;-12.44;40.04
46846;BME280;33947;46.804;134.252;2024-02-21T05:31:57;102238.47;;;-12.64;39.69
46846;BME280;33947;46.804;134.252;2024-02-21T05:35:05;102278.09;;;-12.60;39.94
46846;BME280;33947;46.804;134.252;2024-02-21T05:38:13;102281.63;;;-12.11;39.89
46846;BME280;33947;46.804;134.252;2024-02-21T05:41:20;102283.19;;;-12.32;39.83
46846;BME280;33947;46.804;134.252;2024-02-21T05:44:27;102283.28;;;-12.30;37.58
46846;BME280;33947;46.804;134.252;2024-02-21T05:47:36;102284.78;;;-11.94;39.64
46846;BME280;33947;46.804;134.252;2024-02-21T05:50:43;102278.72;;;-12.43;39.93
46846;BME280;33947;46.804;134.252;2024-02-21T05:53:51;102280.19;;;-12.56;41.00
46846;BME280;33947;46.804;134.252;2024-02-21T05:56:58;102274.91;;;-12.38;40.41
46846;BME280;33947;46.804;134.252;2024-02-21T06:00:07;102277.63;;;-12.37;39.69
46846;BME280;33947;46.804;134.252;2024-02-21T06:03:19;102260.25;;;-12.20;40.19
46846;BME280;33947;46.804;134.252;2024-02-21T06:06:26;102260.09;;;-11.73;38.21
46846;BME280;33947;46.804;134.252;2024-02-21T06:09:33;102255.19;;;-11.80;37.96
46846;BME280;33947;46.804;134.252;2024-02-21T06:12:41;102259.34;;;-12.50;39.42
46846;BME280;33947;46.804;134.252;2024-02-21T06:15:48;102243.06;;;-12.21;39.44
46846;BME280;33947;46.804;134.252;2024-02-21T06:18:57;102252.88;;;-12.55;37.60
46846;BME280;33947;46.804;134.252;2024-02-21T06:22:04;102255.38;;;-12.66;39.48
46846;BME280;33947;46.804;134.252;2024-02-21T06:25:12;102259.38;;;-12.97;38.08
46846;BME280;33947;46.804;134.252;2024-02-21T06:28:20;102259.03;;;-13.11;38.92
46846;BME280;33947;46.804;134.252;2024-02-21T06:31:27;102258.56;;;-12.87;38.63
46846;BME280;33947;46.804;134.252;2024-02-21T06:34:38;102258.84;;;-12.46;38.25
46846;BME280;33947;46.804;134.252;2024-02-21T06:37:44;102257.31;;;-12.44;38.66
46846;BME280;33947;46.804;134.252;2024-02-21T06:40:56;102263.28;;;-12.73;39.10
46846;BME280;33947;46.804;134.252;2024-02-21T06:44:06;102250.88;;;-12.87;39.29
46846;BME280;33947;46.804;134.252;2024-02-21T06:47:13;102261.41;;;-13.03;39.04
46846;BME280;33947;46.804;134.252;2024-02-21T06:50:22;102257.09;;;-13.13;40.47
46846;BME280;33947;46.804;134.252;2024-02-21T06:53:30;102258.22;;;-13.29;40.27
46846;BME280;33947;46.804;134.252;2024-02-21T06:56:37;102259.78;;;-13.12;40.74
46846;BME280;33947;46.804;134.252;2024-02-21T06:59:45;102256.56;;;-13.65;40.64
46846;BME280;33947;46.804;134.252;2024-02-21T07:02:52;102248.56;;;-13.59;41.50
46846;BME280;33947;46.804;134.252;2024-02-21T07:06:01;102250.34;;;-13.58;40.58
46846;BME280;33947;46.804;134.252;2024-02-21T07:09:08;102254.22;;;-13.44;40.96
46846;BME280;33947;46.804;134.252;2024-02-21T07:12:16;102242.94;;;-13.92;40.62
46846;BME280;33947;46.804;134.252;2024-02-21T07:15:24;102249.13;;;-13.90;41.57
46846;BME280;33947;46.804;134.252;2024-02-21T07:18:33;102239.06;;;-13.97;41.41
46846;BME280;33947;46.804;134.252;2024-02-21T07:21:42;102241.06;;;-14.21;41.03
46846;BME280;33947;46.804;134.252;2024-02-21T07:24:49;102258.41;;;-13.82;41.21
46846;BME280;33947;46.804;134.252;2024-02-21T07:27:56;102258.53;;;-13.71;40.76
46846;BME280;33947;46.804;134.252;2024-02-21T07:31:03;102246.94;;;-13.68;41.44
46846;BME280;33947;46.804;134.252;2024-02-21T07:34:10;102250.28;;;-13.77;40.79
46846;BME280;33947;46.804;134.252;2024-02-21T07:37:21;102243.44;;;-14.05;41.96
46846;BME280;33947;46.804;134.252;2024-02-21T07:40:29;102243.72;;;-13.93;41.64
46846;BME280;33947;46.804;134.252;2024-02-21T07:43:36;102232.50;;;-14.30;41.72
46846;BME280;33947;46.804;134.252;2024-02-21T07:46:44;102229.84;;;-14.67;41.32
46846;BME280;33947;46.804;134.252;2024-02-21T07:49:51;102243.25;;;-14.61;41.32
46846;BME280;33947;46.804;134.252;2024-02-21T07:53:00;102242.03;;;-14.64;41.33
46846;BME280;33947;46.804;134.252;2024-02-21T07:56:07;102247.88;;;-14.65;42.67
46846;BME280;33947;46.804;134.252;2024-02-21T07:59:14;102224.22;;;-15.16;42.41
46846;BME280;33947;46.804;134.252;2024-02-21T08:02:21;102253.25;;;-15.15;42.83
46846;BME280;33947;46.804;134.252;2024-02-21T08:05:29;102244.66;;;-15.16;42.40
46846;BME280;33947;46.804;134.252;2024-02-21T08:08:38;102255.94;;;-15.14;43.05
46846;BME280;33947;46.804;134.252;2024-02-21T08:11:45;102260.72;;;-15.17;43.28
46846;BME280;33947;46.804;134.252;2024-02-21T08:14:53;102256.50;;;-15.25;43.25
46846;BME280;33947;46.804;134.252;2024-02-21T08:18:00;102255.38;;;-15.53;44.52
46846;BME280;33947;46.804;134.252;2024-02-21T08:21:09;102250.56;;;-15.50;44.47
46846;BME280;33947;46.804;134.252;2024-02-21T08:24:17;102257.13;;;-15.70;44.76
46846;BME280;33947;46.804;134.252;2024-02-21T08:27:25;102258.41;;;-15.82;45.36
46846;BME280;33947;46.804;134.252;2024-02-21T08:30:33;102261.91;;;-15.73;45.30
46846;BME280;33947;46.804;134.252;2024-02-21T08:33:40;102254.84;;;-15.67;44.89
46846;BME280;33947;46.804;134.252;2024-02-21T08:36:47;102261.59;;;-16.01;45.55
46846;BME280;33947;46.804;134.252;2024-02-21T08:39:56;102273.19;;;-16.21;46.02
46846;BME280;33947;46.804;134.252;2024-02-21T08:43:04;102269.81;;;-16.29;46.00
46846;BME280;33947;46.804;134.252;2024-02-21T08:46:11;102276.00;;;-16.43;46.71
46846;BME280;33947;46.804;134.252;2024-02-21T08:49:19;102286.63;;;-16.47;47.79
46846;BME280;33947;46.804;134.252;2024-02-21T08:52:27;102279.78;;;-16.39;46.88
46846;BME280;33947;46.804;134.252;2024-02-21T08:55:36;102296.00;;;-16.54;47.16
46846;BME280;33947;46.804;134.252;2024-02-21T08:58:44;102295.00;;;-16.64;47.63
46846;BME280;33947;46.804;134.252;2024-02-21T09:01:51;102299.56;;;-16.61;47.72
46846;BME280;33947;46.804;134.252;2024-02-21T09:04:59;102306.03;;;-16.72;47.82
46846;BME280;33947;46.804;134.252;2024-02-21T09:08:10;102314.94;;;-16.68;47.67
46846;BME280;33947;46.804;134.252;2024-02-21T09:11:19;102311.16;;;-16.88;48.44
46846;BME280;33947;46.804;134.252;2024-02-21T09:14:26;102304.56;;;-17.02;48.58
46846;BME280;33947;46.804;134.252;2024-02-21T09:17:33;102313.41;;;-17.15;49.19
46846;BME280;33947;46.804;134.252;2024-02-21T09:20:41;102313.66;;;-17.20;49.19
46846;BME280;33947;46.804;134.252;2024-02-21T09:23:48;102310.56;;;-17.41;49.40
46846;BME280;33947;46.804;134.252;2024-02-21T09:27:00;102284.28;;;-17.72;49.53
46846;BME280;33947;46.804;134.252;2024-02-21T09:30:08;102313.94;;;-17.56;48.74
46846;BME280;33947;46.804;134.252;2024-02-21T09:33:15;102332.16;;;-17.61;49.02
46846;BME280;33947;46.804;134.252;2024-02-21T09:36:35;102278.63;;;-17.93;49.02
46846;BME280;33947;46.804;134.252;2024-02-21T09:39:47;102308.47;;;-17.76;49.80
46846;BME280;33947;46.804;134.252;2024-02-21T09:43:18;102279.78;;;-17.98;49.49
46846;BME280;33947;46.804;134.252;2024-02-21T09:46:39;102349.72;;;-17.78;50.37
46846;BME280;33947;46.804;134.252;2024-02-21T09:49:51;102328.81;;;-17.76;49.21
46846;BME280;33947;46.804;134.252;2024-02-21T09:53:01;102340.28;;;-17.79;49.45
46846;BME280;33947;46.804;134.252;2024-02-21T09:56:09;102356.09;;;-17.82;49.68
46846;BME280;33947;46.804;134.252;2024-02-21T09:59:20;102358.97;;;-18.02;50.47
46846;BME280;33947;46.804;134.252;2024-02-21T10:02:27;102353.78;;;-18.18;50.46
46846;BME280;33947;46.804;134.252;2024-02-21T10:05:34;102357.44;;;-18.23;51.22
46846;BME280;33947;46.804;134.252;2024-02-21T10:08:42;102335.22;;;-18.48;50.92
46846;BME280;33947;46.804;134.252;2024-02-21T10:11:51;102356.56;;;-18.38;51.25
46846;BME280;33947;46.804;134.252;2024-02-21T10:15:04;102358.03;;;-18.40;51.62
46846;BME280;33947;46.804;134.252;2024-02-21T10:18:12;102353.88;;;-18.47;51.23
46846;BME280;33947;46.804;134.252;2024-02-21T10:21:25;102348.06;;;-18.46;50.96
46846;BME280;33947;46.804;134.252;2024-02-21T10:24:32;102351.84;;;-18.35;50.00
46846;BME280;33947;46.804;134.252;2024-02-21T10:27:39;102352.88;;;-18.26;49.50
46846;BME280;33947;46.804;134.252;2024-02-21T10:30:52;102355.09;;;-18.29;49.22
46846;BME280;33947;46.804;134.252;2024-02-21T10:34:00;102352.97;;;-18.40;49.01
46846;BME280;33947;46.804;134.252;2024-02-21T10:37:11;102352.25;;;-18.47;50.02
46846;BME280;33947;46.804;134.252;2024-02-21T10:40:18;102348.66;;;-18.63;49.75
46846;BME280;33947;46.804;134.252;2024-02-21T10:43:26;102347.78;;;-18.64;50.04
46846;BME280;33947;46.804;134.252;2024-02-21T10:46:37;102340.00;;;-18.72;49.44
46846;BME280;33947;46.804;134.252;2024-02-21T10:49:45;102341.44;;;-18.67;49.22
46846;BME280;33947;46.804;134.252;2024-02-21T10:53:00;102343.59;;;-18.63;48.85
46846;BME280;33947;46.804;134.252;2024-02-21T10:56:22;102297.47;;;-18.97;49.67
46846;BME280;33947;46.804;134.252;2024-02-21T10:59:31;102347.44;;;-18.74;49.25
46846;BME280;33947;46.804;134.252;2024-02-21T11:02:40;102345.09;;;-18.80;49.49
46846;BME280;33947;46.804;134.252;2024-02-21T11:05:49;102333.53;;;-18.99;49.46
46846;BME280;33947;46.804;134.252;2024-02-21T11:09:04;102319.06;;;-19.08;49.06
46846;BME280;33947;46.804;134.252;2024-02-21T11:12:22;102354.34;;;-18.87;49.30
46846;BME280;33947;46.804;134.252;2024-02-21T11:15:31;102355.06;;;-18.81;48.44
46846;BME280;33947;46.804;134.252;2024-02-21T11:18:40;102354.84;;;-18.68;48.21
46846;BME280;33947;46.804;134.252;2024-02-21T11:21:48;102324.75;;;-18.65;47.92
46846;BME280;33947;46.804;134.252;2024-02-21T11:25:06;102357.13;;;-19.08;48.38
46846;BME280;33947;46.804;134.252;2024-02-21T11:28:25;102359.31;;;-19.18;48.73
46846;BME280;33947;46.804;134.252;2024-02-21T11:31:39;102145.97;;;-20.31;48.67
46846;BME280;33947;46.804;134.252;2024-02-21T11:34:57;102359.50;;;-19.09;48.56
46846;BME280;33947;46.804;134.252;2024-02-21T11:38:11;102359.88;;;-19.13;48.19
46846;BME280;33947;46.804;134.252;2024-02-21T11:41:21;102373.91;;;-20.02;50.56
46846;BME280;33947;46.804;134.252;2024-02-21T11:44:32;102365.72;;;-20.22;51.34
46846;BME280;33947;46.804;134.252;2024-02-21T11:51:26;102296.94;;;-20.32;50.06
46846;BME280;33947;46.804;134.252;2024-02-21T11:54:35;102383.00;;;-19.75;49.35
46846;BME280;33947;46.804;134.252;2024-02-21T11:57:45;102375.66;;;-20.30;49.83
46846;BME280;33947;46.804;134.252;2024-02-21T12:00:52;102376.03;;;-20.20;50.47
46846;BME280;33947;46.804;134.252;2024-02-21T12:04:03;102372.09;;;-19.96;50.03
46846;BME280;33947;46.804;134.252;2024-02-21T12:07:11;102374.03;;;-20.15;50.50
46846;BME280;33947;46.804;134.252;2024-02-21T12:10:19;102380.09;;;-19.93;49.98
46846;BME280;33947;46.804;134.252;2024-02-21T12:13:27;102372.09;;;-20.11;49.00
46846;BME280;33947;46.804;134.252;2024-02-21T12:16:34;102381.63;;;-20.23;49.63
46846;BME280;33947;46.804;134.252;2024-02-21T12:19:43;102352.09;;;-20.37;49.71
46846;BME280;33947;46.804;134.252;2024-02-21T12:22:52;102374.34;;;-20.34;49.96
46846;BME280;33947;46.804;134.252;2024-02-21T12:25:59;102383.47;;;-20.91;51.66
46846;BME280;33947;46.804;134.252;2024-02-21T12:29:07;102380.03;;;-20.91;51.28
46846;BME280;33947;46.804;134.252;2024-02-21T12:32:15;102375.88;;;-20.91;51.41
46846;BME280;33947;46.804;134.252;2024-02-21T12:35:22;102366.88;;;-20.82;51.39
46846;BME280;33947;46.804;134.252;2024-02-21T12:38:31;102365.59;;;-20.85;51.02
46846;BME280;33947;46.804;134.252;2024-02-21T12:41:38;102370.44;;;-20.94;50.89
46846;BME280;33947;46.804;134.252;2024-02-21T12:44:47;102377.56;;;-21.12;51.46
46846;BME280;33947;46.804;134.252;2024-02-21T12:47:54;102371.72;;;-21.18;52.29
46846;BME280;33947;46.804;134.252;2024-02-21T12:51:02;102364.16;;;-20.83;51.63
46846;BME280;33947;46.804;134.252;2024-02-21T12:54:11;102373.25;;;-21.05;50.69
46846;BME280;33947;46.804;134.252;2024-02-21T12:57:18;102376.72;;;-21.05;51.30
46846;BME280;33947;46.804;134.252;2024-02-21T13:00:26;102373.16;;;-21.20;51.02
46846;BME280;33947;46.804;134.252;2024-02-21T13:03:33;102371.59;;;-21.32;51.69
46846;BME280;33947;46.804;134.252;2024-02-21T13:06:40;102379.44;;;-21.44;52.10
46846;BME280;33947;46.804;134.252;2024-02-21T13:09:50;102386.34;;;-21.83;53.42
46846;BME280;33947;46.804;134.252;2024-02-21T13:12:58;102385.44;;;-21.63;52.45
46846;BME280;33947;46.804;134.252;2024-02-21T13:16:06;102267.38;;;-22.45;52.49
46846;BME280;33947;46.804;134.252;2024-02-21T13:19:16;102382.63;;;-22.26;55.03
46846;BME280;33947;46.804;134.252;2024-02-21T13:22:24;102386.72;;;-21.80;54.25
46846;BME280;33947;46.804;134.252;2024-02-21T13:25:33;102369.47;;;-21.90;52.80
46846;BME280;33947;46.804;134.252;2024-02-21T13:28:40;102395.97;;;-21.73;53.19
46846;BME280;33947;46.804;134.252;2024-02-21T13:31:49;102386.13;;;-21.85;52.81
46846;BME280;33947;46.804;134.252;2024-02-21T13:34:57;102395.69;;;-22.02;53.34
46846;BME280;33947;46.804;134.252;2024-02-21T13:38:06;102384.59;;;-22.10;53.66
46846;BME280;33947;46.804;134.252;2024-02-21T13:41:17;102395.53;;;-21.63;54.45
46846;BME280;33947;46.804;134.252;2024-02-21T13:44:25;102402.91;;;-21.25;55.45
46846;BME280;33947;46.804;134.252;2024-02-21T13:47:32;102413.25;;;-20.96;54.58
46846;BME280;33947;46.804;134.252;2024-02-21T13:50:40;102414.94;;;-20.82;54.18
46846;BME280;33947;46.804;134.252;2024-02-21T13:53:48;102409.88;;;-20.54;54.23
46846;BME280;33947;46.804;134.252;2024-02-21T13:56:57;102404.97;;;-20.53;53.89
46846;BME280;33947;46.804;134.252;2024-02-21T14:00:06;102415.34;;;-20.44;52.83
46846;BME280;33947;46.804;134.252;2024-02-21T14:03:16;102424.88;;;-20.83;55.40
46846;BME280;33947;46.804;134.252;2024-02-21T14:06:23;102431.06;;;-20.74;54.03
46846;BME280;33947;46.804;134.252;2024-02-21T14:09:30;102425.19;;;-20.60;52.88
46846;BME280;33947;46.804;134.252;2024-02-21T14:12:39;102429.31;;;-20.68;53.74
46846;BME280;33947;46.804;134.252;2024-02-21T14:15:46;102424.13;;;-20.55;52.37
46846;BME280;33947;46.804;134.252;2024-02-21T14:18:54;102426.34;;;-20.78;51.66
46846;BME280;33947;46.804;134.252;2024-02-21T14:22:01;102413.53;;;-21.27;52.93
46846;BME280;33947;46.804;134.252;2024-02-21T14:25:09;102439.38;;;-20.75;53.15
46846;BME280;33947;46.804;134.252;2024-02-21T14:28:18;102440.50;;;-20.45;51.96
46846;BME280;33947;46.804;134.252;2024-02-21T14:31:26;102448.19;;;-20.24;51.46
46846;BME280;33947;46.804;134.252;2024-02-21T14:34:33;102449.03;;;-20.03;51.50
46846;BME280;33947;46.804;134.252;2024-02-21T14:37:41;102452.50;;;-19.81;51.05
46846;BME280;33947;46.804;134.252;2024-02-21T14:40:48;102449.97;;;-19.81;51.28
46846;BME280;33947;46.804;134.252;2024-02-21T14:43:56;102448.69;;;-19.84;50.98
46846;BME280;33947;46.804;134.252;2024-02-21T14:47:07;102460.69;;;-19.69;50.63
46846;BME280;33947;46.804;134.252;2024-02-21T14:50:15;102453.50;;;-19.51;50.44
46846;BME280;33947;46.804;134.252;2024-02-21T14:53:22;102434.28;;;-19.56;49.99
46846;BME280;33947;46.804;134.252;2024-02-21T14:56:30;102447.66;;;-19.72;50.84
46846;BME280;33947;46.804;134.252;2024-02-21T14:59:40;102363.06;;;-20.01;50.59
46846;BME280;33947;46.804;134.252;2024-02-21T15:02:47;102450.78;;;-19.45;50.09
46846;BME280;33947;46.804;134.252;2024-02-21T15:05:55;102449.16;;;-19.45;49.64
46846;BME280;33947;46.804;134.252;2024-02-21T15:09:03;102438.09;;;-19.53;49.51
46846;BME280;33947;46.804;134.252;2024-02-21T15:12:12;102457.50;;;-19.39;49.56
46846;BME280;33947;46.804;134.252;2024-02-21T15:15:21;102451.00;;;-19.29;48.74
46846;BME280;33947;46.804;134.252;2024-02-21T15:18:29;102454.63;;;-19.27;49.42
46846;BME280;33947;46.804;134.252;2024-02-21T15:21:37;102450.44;;;-19.41;49.18
46846;BME280;33947;46.804;134.252;2024-02-21T15:24:44;102457.31;;;-19.55;50.27
46846;BME280;33947;46.804;134.252;2024-02-21T15:27:53;102448.78;;;-19.48;50.41
46846;BME280;33947;46.804;134.252;2024-02-21T15:31:01;102452.91;;;-19.63;50.46
46846;BME280;33947;46.804;134.252;2024-02-21T15:34:08;102451.66;;;-19.67;51.15
46846;BME280;33947;46.804;134.252;2024-02-21T15:37:16;102435.72;;;-19.66;50.62
46846;BME280;33947;46.804;134.252;2024-02-21T15:40:23;102456.72;;;-19.67;50.19
46846;BME280;33947;46.804;134.252;2024-02-21T15:43:32;102402.34;;;-19.98;50.69
46846;BME280;33947;46.804;134.252;2024-02-21T15:46:41;102437.84;;;-19.76;50.39
46846;BME280;33947;46.804;134.252;2024-02-21T15:49:48;102398.72;;;-20.00;50.67
46846;BME280;33947;46.804;134.252;2024-02-21T15:52:57;102440.81;;;-19.51;50.36
46846;BME280;33947;46.804;134.252;2024-02-21T15:56:04;102442.03;;;-19.77;50.88